createdAt,value
2018-07-11T13:54:38.208Z,3.55
2018-07-11T13:57:07.064Z,3.50
2018-07-11T13:59:35.824Z,4.05
2018-07-11T14:02:04.609Z,6.20
2018-07-11T14:04:33.351Z,3.80
2018-07-11T14:07:02.110Z,3.72
2018-07-11T14:09:30.867Z,3.00
2018-07-11T14:11:59.674Z,2.70
2018-07-11T14:14:28.574Z,5.25
2018-07-11T14:16:57.565Z,2.65
2018-07-11T14:19:26.387Z,2.60
2018-07-11T14:21:55.735Z,2.40
2018-07-11T14:24:24.811Z,4.42
2018-07-11T14:26:54.473Z,2.62
2018-07-11T14:29:24.885Z,2.85
2018-07-11T14:31:53.631Z,2.92
2018-07-11T14:34:22.538Z,3.70
2018-07-11T14:36:51.524Z,5.62
2018-07-11T14:39:20.235Z,2.80
2018-07-11T14:41:49.008Z,4.47
2018-07-11T14:44:18.298Z,3.52
2018-07-11T14:46:46.990Z,3.65
2018-07-11T14:49:16.842Z,3.05
2018-07-11T14:51:45.618Z,3.80
2018-07-11T14:54:14.367Z,2.50
2018-07-11T14:56:43.165Z,2.75
2018-07-11T14:59:12.213Z,3.12
2018-07-11T15:01:41.048Z,3.87
2018-07-11T15:04:09.791Z,2.85
2018-07-11T15:06:38.536Z,5.05
2018-07-11T15:09:07.558Z,4.12
2018-07-11T15:11:36.182Z,3.20
2018-07-11T15:14:05.035Z,3.02
2018-07-11T15:16:33.711Z,2.92
2018-07-11T15:19:02.584Z,7.35
2018-07-11T15:21:31.397Z,6.65
2018-07-11T15:24:00.182Z,6.67
2018-07-11T15:26:29.063Z,5.03
2018-07-11T15:28:58.255Z,6.50
2018-07-11T15:31:27.078Z,4.37
2018-07-11T15:33:55.886Z,5.08
2018-07-11T15:36:24.626Z,5.37
2018-07-11T15:38:53.494Z,11.90
2018-07-11T15:41:22.300Z,5.47
2018-07-11T15:43:51.078Z,9.28
2018-07-11T15:46:19.900Z,5.90
2018-07-11T15:48:49.638Z,5.53
2018-07-11T15:51:18.390Z,10.75
2018-07-11T15:53:47.200Z,5.53
2018-07-11T15:56:15.999Z,30.40
2018-07-11T15:58:47.689Z,5.33
2018-07-11T16:01:18.375Z,5.10
2018-07-11T16:03:48.520Z,7.22
2018-07-11T16:06:18.445Z,8.38
2018-07-11T16:08:49.996Z,4.90
2018-07-11T16:11:18.937Z,6.95
2018-07-11T16:13:47.717Z,5.05
2018-07-11T16:16:16.498Z,6.20
2018-07-11T16:18:45.362Z,5.97
2018-07-11T16:21:14.047Z,8.43
2018-07-11T16:23:42.844Z,4.92
2018-07-11T16:26:11.575Z,7.42
2018-07-11T16:28:41.298Z,5.58
2018-07-11T16:31:10.074Z,7.12
2018-07-11T16:33:39.183Z,7.83
2018-07-11T16:36:08.022Z,6.50
2018-07-11T16:38:36.840Z,8.40
2018-07-11T16:41:05.636Z,6.92
2018-07-11T16:43:34.719Z,7.55
2018-07-11T16:46:03.581Z,7.95
2018-07-11T16:48:32.380Z,5.62
2018-07-11T16:51:01.166Z,5.62
2018-07-11T16:53:29.985Z,5.33
2018-07-11T16:55:58.745Z,9.98
2018-07-11T16:58:30.358Z,6.28
2018-07-11T17:01:00.526Z,7.97
2018-07-11T17:03:29.763Z,5.80
2018-07-11T17:06:07.299Z,6.65
2018-07-11T17:08:38.308Z,7.72
2018-07-11T17:11:19.404Z,5.85
2018-07-11T17:13:51.246Z,5.08
2018-07-11T17:16:21.227Z,8.15
2018-07-11T17:18:53.879Z,7.58
2018-07-11T17:21:35.001Z,6.50
2018-07-11T17:24:09.697Z,7.58
2018-07-11T17:26:46.564Z,8.13
2018-07-11T17:29:30.838Z,5.83
2018-07-11T17:32:06.178Z,5.72
2018-07-11T17:34:36.423Z,6.00
2018-07-11T17:37:06.643Z,6.15
2018-07-11T17:39:56.507Z,5.87
2018-07-11T17:42:28.499Z,6.60
2018-07-11T17:45:09.433Z,15.48
2018-07-11T17:49:51.654Z,8.18
2018-07-11T17:52:20.453Z,6.72
2018-07-11T17:55:15.762Z,7.92
2018-07-11T17:57:53.470Z,7.50
2018-07-11T18:01:47.480Z,5.92
2018-07-11T18:04:23.721Z,5.05
2018-07-11T18:07:00.490Z,7.28
2018-07-11T18:09:45.952Z,5.85
2018-07-11T18:12:25.016Z,10.43
2018-07-11T18:15:04.673Z,8.95
2018-07-11T18:17:43.687Z,8.88
2018-07-11T18:22:26.184Z,6.03
2018-07-11T18:25:17.497Z,6.27
2018-07-11T18:27:56.251Z,8.37
2018-07-11T18:30:34.845Z,8.60
2018-07-11T18:33:40.142Z,23.20
2018-07-11T18:37:33.890Z,14.07
2018-07-11T18:40:03.942Z,9.57
2018-07-11T18:42:43.698Z,15.13
2018-07-11T18:47:27.275Z,10.33
2018-07-11T18:50:05.768Z,17.00
2018-07-11T18:53:40.962Z,19.37
2018-07-11T18:56:25.327Z,16.97
2018-07-11T18:58:59.429Z,23.20
2018-07-11T19:01:45.456Z,15.60
2018-07-11T19:04:21.168Z,17.57
2018-07-11T19:06:59.953Z,11.63
2018-07-11T19:09:39.040Z,24.73
2018-07-11T19:12:35.059Z,22.97
2018-07-11T19:15:10.942Z,19.40
2018-07-11T19:21:00.848Z,9.07
2018-07-11T19:23:39.845Z,21.10
2018-07-11T19:26:20.751Z,29.80
2018-07-11T19:29:04.099Z,29.73
2018-07-11T19:31:45.035Z,21.50
2018-07-11T19:36:29.525Z,19.93
2018-07-11T19:40:07.860Z,17.13
2018-07-11T19:43:01.491Z,14.80
2018-07-11T19:46:02.949Z,14.70
2018-07-11T19:49:00.974Z,12.87
2018-07-11T19:51:39.199Z,19.67
2018-07-11T19:56:24.423Z,19.97
2018-07-11T19:58:53.359Z,18.70
2018-07-11T20:01:22.174Z,14.60
2018-07-11T20:03:51.793Z,14.87
2018-07-11T20:06:21.299Z,15.60
2018-07-11T20:08:50.509Z,15.57
2018-07-11T20:11:20.289Z,26.80
2018-07-11T20:13:49.273Z,33.87
2018-07-11T20:16:18.130Z,16.43
2018-07-11T20:18:46.899Z,17.07
2018-07-11T20:21:15.546Z,17.63
2018-07-11T20:23:45.142Z,12.20
2018-07-11T20:26:14.303Z,21.20
2018-07-11T20:28:43.407Z,15.63
2018-07-11T20:31:12.178Z,11.47
2018-07-11T20:33:40.854Z,13.20
2018-07-11T20:36:09.553Z,12.47
2018-07-11T20:38:38.781Z,14.73
2018-07-11T20:41:08.294Z,27.03
2018-07-11T20:43:37.007Z,18.97
2018-07-11T20:46:06.718Z,16.13
2018-07-11T20:48:36.508Z,23.20
2018-07-11T20:51:05.725Z,12.97
2018-07-11T20:53:34.361Z,14.30
2018-07-11T20:56:03.110Z,13.77
2018-07-11T20:58:43.581Z,15.67
2018-07-11T21:01:23.338Z,20.70
2018-07-11T21:04:46.975Z,12.67
2018-07-11T21:07:33.184Z,13.30
2018-07-11T21:10:48.951Z,15.23
2018-07-11T21:15:37.019Z,13.03
2018-07-11T21:18:17.012Z,17.80
2018-07-11T21:20:45.810Z,13.07
2018-07-11T21:23:14.599Z,14.87
2018-07-11T21:25:43.317Z,13.27
2018-07-11T21:28:11.957Z,13.63
2018-07-11T21:30:40.756Z,18.97
2018-07-11T21:33:10.367Z,12.53
2018-07-11T21:35:38.990Z,14.13
2018-07-11T21:38:07.751Z,15.07
2018-07-11T21:40:36.473Z,13.80
2018-07-11T21:43:06.198Z,14.10
2018-07-11T21:45:34.935Z,18.70
2018-07-11T21:48:03.745Z,14.17
2018-07-11T21:50:32.560Z,19.13
2018-07-11T21:53:01.222Z,15.50
2018-07-11T21:55:29.951Z,13.23
2018-07-11T21:57:58.700Z,11.30
2018-07-11T22:00:33.803Z,18.17
2018-07-11T22:03:02.631Z,17.43
2018-07-11T22:05:32.090Z,13.23
2018-07-11T22:08:00.744Z,13.03
2018-07-11T22:10:29.451Z,19.63
2018-07-11T22:12:58.132Z,14.27
2018-07-11T22:15:27.088Z,13.50
2018-07-11T22:18:06.870Z,13.67
2018-07-11T22:20:34.774Z,12.50
2018-07-11T22:23:03.166Z,12.13
2018-07-11T22:25:30.825Z,11.10
2018-07-11T22:27:58.283Z,14.20
2018-07-11T22:30:26.051Z,11.53
2018-07-11T22:32:53.507Z,10.83
2018-07-11T22:35:20.893Z,12.97
2018-07-11T22:37:48.297Z,11.37
2018-07-11T22:40:15.687Z,12.90
2018-07-11T22:42:44.014Z,13.10
2018-07-11T22:45:11.407Z,13.07
2018-07-11T22:47:38.846Z,13.50
2018-07-11T22:50:06.270Z,12.23
2018-07-11T22:52:33.622Z,13.90
2018-07-11T22:55:01.030Z,10.37
2018-07-11T22:57:28.410Z,13.33
2018-07-11T22:59:55.767Z,11.73
2018-07-11T23:02:23.157Z,13.10
2018-07-11T23:04:50.654Z,13.27
2018-07-11T23:07:18.075Z,11.40
2018-07-11T23:09:45.426Z,9.90
2018-07-11T23:12:12.786Z,11.67
2018-07-11T23:14:40.196Z,13.47
2018-07-11T23:17:07.575Z,16.00
2018-07-11T23:19:34.926Z,14.00
2018-07-11T23:22:02.357Z,14.47
2018-07-11T23:24:29.751Z,13.73
2018-07-11T23:26:57.120Z,10.33
2018-07-11T23:29:24.524Z,16.00
2018-07-11T23:31:51.889Z,16.80
2018-07-11T23:34:19.249Z,14.50
2018-07-11T23:36:46.722Z,12.20
2018-07-11T23:39:14.160Z,12.30
2018-07-11T23:41:41.570Z,10.03
2018-07-11T23:44:08.914Z,12.80
2018-07-11T23:46:36.328Z,14.73
2018-07-11T23:49:03.733Z,11.47
2018-07-11T23:51:31.195Z,10.17
2018-07-11T23:53:58.548Z,13.13
2018-07-11T23:56:25.972Z,13.87
2018-07-11T23:58:53.736Z,12.37
